createdAt,value
2018-05-04T00:00:07.670Z,8.50
2018-05-04T00:02:35.167Z,8.40
2018-05-04T00:05:02.886Z,8.40
2018-05-04T00:07:30.447Z,8.40
2018-05-04T00:09:57.942Z,8.40
2018-05-04T00:12:26.488Z,8.40
2018-05-04T00:14:53.985Z,8.40
2018-05-04T00:17:21.706Z,8.30
2018-05-04T00:19:49.216Z,8.20
2018-05-04T00:22:17.148Z,8.20
2018-05-04T00:24:44.998Z,8.20
2018-05-04T00:27:12.502Z,8.10
2018-05-04T00:29:40.315Z,8.10
2018-05-04T00:32:07.946Z,8.10
2018-05-04T00:34:35.451Z,8.30
2018-05-04T00:37:03.202Z,8.10
2018-05-04T00:39:30.694Z,8.00
2018-05-04T00:41:58.414Z,8.00
2018-05-04T00:44:26.366Z,8.10
2018-05-04T00:46:53.947Z,8.10
2018-05-04T00:49:21.711Z,8.00
2018-05-04T00:51:49.219Z,8.00
2018-05-04T00:54:23.393Z,8.00
2018-05-04T00:56:50.898Z,8.00
2018-05-04T00:59:18.389Z,7.90
2018-05-04T01:01:46.037Z,7.70
2018-05-04T01:04:13.555Z,7.70
2018-05-04T01:06:41.190Z,7.80
2018-05-04T01:09:08.693Z,7.80
2018-05-04T01:11:36.499Z,7.60
2018-05-04T01:14:03.997Z,7.60
2018-05-04T01:16:31.706Z,7.60
2018-05-04T01:18:59.201Z,7.50
2018-05-04T01:21:26.934Z,7.50
2018-05-04T01:23:54.430Z,7.40
2018-05-04T01:26:22.143Z,7.40
2018-05-04T01:28:49.917Z,7.40
2018-05-04T01:31:17.456Z,7.50
2018-05-04T01:33:45.142Z,7.50
2018-05-04T01:36:12.658Z,7.60
2018-05-04T01:38:40.153Z,7.60
2018-05-04T01:41:07.773Z,7.50
2018-05-04T01:43:35.592Z,7.40
2018-05-04T01:46:03.345Z,7.40
2018-05-04T01:48:31.065Z,7.50
2018-05-04T01:50:58.557Z,7.40
2018-05-04T01:53:26.330Z,7.40
2018-05-04T01:55:53.826Z,7.40
2018-05-04T01:58:21.515Z,7.40
2018-05-04T02:00:49.009Z,7.40
2018-05-04T02:03:16.518Z,7.40
2018-05-04T02:05:44.223Z,7.40
2018-05-04T02:08:11.737Z,7.30
2018-05-04T02:10:39.356Z,7.30
2018-05-04T02:13:06.910Z,7.30
2018-05-04T02:15:34.406Z,7.30
2018-05-04T02:18:01.908Z,7.30
2018-05-04T02:20:29.530Z,7.30
2018-05-04T02:22:57.053Z,7.20
2018-05-04T02:25:24.560Z,7.10
2018-05-04T02:27:52.214Z,7.20
2018-05-04T02:30:19.713Z,7.10
2018-05-04T02:32:47.209Z,7.10
2018-05-04T02:35:14.719Z,7.20
2018-05-04T02:37:42.210Z,7.10
2018-05-04T02:40:09.813Z,7.10
2018-05-04T02:42:38.302Z,7.10
2018-05-04T02:45:05.996Z,7.10
2018-05-04T02:47:33.745Z,7.00
2018-05-04T02:50:01.273Z,7.10
2018-05-04T02:52:28.757Z,7.10
2018-05-04T02:54:56.907Z,7.00
2018-05-04T02:57:24.411Z,7.00
2018-05-04T02:59:51.898Z,7.00
2018-05-04T03:02:19.406Z,6.90
2018-05-04T03:04:46.901Z,6.90
2018-05-04T03:07:14.601Z,6.80
2018-05-04T03:09:42.099Z,6.80
2018-05-04T03:12:09.845Z,6.80
2018-05-04T03:14:37.353Z,6.80
2018-05-04T03:17:05.699Z,6.80
2018-05-04T03:19:33.450Z,6.80
2018-05-04T03:22:01.013Z,6.80
2018-05-04T03:24:28.451Z,6.80
2018-05-04T03:26:55.941Z,6.80
2018-05-04T03:29:23.451Z,6.80
2018-05-04T03:31:50.994Z,6.70
2018-05-04T03:34:18.506Z,6.70
2018-05-04T03:36:46.263Z,6.70
2018-05-04T03:39:13.762Z,6.70
2018-05-04T03:41:42.411Z,6.70
2018-05-04T03:44:10.340Z,6.70
2018-05-04T03:46:37.885Z,6.70
2018-05-04T03:49:05.399Z,6.60
2018-05-04T03:51:33.151Z,6.40
2018-05-04T03:54:00.646Z,6.40
2018-05-04T03:56:28.359Z,6.50
2018-05-04T03:59:07.796Z,6.50
2018-05-04T04:01:47.237Z,6.50
2018-05-04T04:04:15.014Z,6.50
2018-05-04T04:06:42.510Z,6.50
2018-05-04T04:09:10.221Z,6.60
2018-05-04T04:11:37.714Z,6.40
2018-05-04T04:14:05.443Z,6.30
2018-05-04T04:16:32.945Z,6.40
2018-05-04T04:19:01.167Z,6.50
2018-05-04T04:21:28.699Z,6.60
2018-05-04T04:23:56.498Z,6.50
2018-05-04T04:26:24.362Z,6.60
2018-05-04T04:28:51.981Z,6.70
2018-05-04T04:31:19.478Z,6.80
2018-05-04T04:33:47.249Z,6.80
2018-05-04T04:36:14.747Z,6.80
2018-05-04T04:38:43.020Z,6.90
2018-05-04T04:41:10.510Z,6.90
2018-05-04T04:43:38.478Z,6.90
2018-05-04T04:46:06.053Z,6.90
2018-05-04T04:48:33.822Z,6.90
2018-05-04T04:51:01.595Z,6.90
2018-05-04T04:53:29.109Z,7.00
2018-05-04T04:55:56.769Z,7.00
2018-05-04T04:58:24.265Z,7.10
2018-05-04T05:00:51.990Z,7.20
2018-05-04T05:03:19.510Z,7.30
2018-05-04T05:05:47.214Z,7.40
2018-05-04T05:08:14.726Z,7.40
2018-05-04T05:10:42.466Z,7.50
2018-05-04T05:13:10.238Z,7.40
2018-05-04T05:15:38.632Z,7.40
2018-05-04T05:18:06.131Z,7.40
2018-05-04T05:20:33.826Z,7.50
2018-05-04T05:23:01.356Z,7.60
2018-05-04T05:25:29.290Z,7.60
2018-05-04T05:27:56.794Z,7.60
2018-05-04T05:30:24.289Z,7.70
2018-05-04T05:32:51.918Z,7.70
2018-05-04T05:35:19.449Z,7.80
2018-05-04T05:37:46.963Z,8.00
2018-05-04T05:40:14.715Z,8.00
2018-05-04T05:42:42.210Z,8.40
2018-05-04T05:45:10.559Z,8.60
2018-05-04T05:47:38.049Z,8.70
2018-05-04T05:50:05.608Z,8.50
2018-05-04T05:52:33.230Z,8.60
2018-05-04T05:55:00.745Z,8.60
2018-05-04T05:57:28.448Z,8.80
2018-05-04T05:59:55.949Z,10.00
2018-05-04T06:02:23.534Z,9.80
2018-05-04T06:04:51.042Z,10.00
2018-05-04T06:07:18.538Z,9.70
2018-05-04T06:09:46.042Z,9.70
2018-05-04T06:12:13.542Z,9.60
2018-05-04T06:14:41.266Z,9.30
2018-05-04T06:17:08.757Z,9.40
2018-05-04T06:19:36.282Z,9.40
2018-05-04T06:22:03.936Z,9.50
2018-05-04T06:24:31.689Z,9.60
2018-05-04T06:26:59.459Z,9.60
2018-05-04T06:29:27.092Z,9.50
2018-05-04T06:31:54.671Z,9.60
2018-05-04T06:34:22.175Z,9.80
2018-05-04T06:36:49.675Z,9.90
2018-05-04T06:39:17.182Z,10.00
2018-05-04T06:41:45.451Z,10.10
2018-05-04T06:44:13.146Z,10.10
2018-05-04T06:46:40.951Z,10.10
2018-05-04T06:49:08.962Z,10.30
2018-05-04T06:51:36.483Z,10.40
2018-05-04T06:54:04.258Z,10.50
2018-05-04T06:56:31.768Z,10.50
2018-05-04T06:58:59.267Z,10.50
2018-05-04T07:01:27.094Z,10.60
2018-05-04T07:03:54.685Z,10.80
2018-05-04T07:06:22.450Z,10.80
2018-05-04T07:08:50.214Z,10.90
2018-05-04T07:11:17.842Z,10.90
2018-05-04T07:13:45.447Z,11.00
2018-05-04T07:16:13.190Z,11.00
2018-05-04T07:18:40.690Z,11.10
2018-05-04T07:21:08.408Z,11.20
2018-05-04T07:23:35.910Z,11.30
2018-05-04T07:26:03.628Z,11.30
2018-05-04T07:28:31.134Z,11.30
2018-05-04T07:30:58.825Z,11.40
2018-05-04T07:33:26.365Z,11.60
2018-05-04T07:35:54.117Z,11.70
2018-05-04T07:38:22.322Z,11.80
2018-05-04T07:40:49.842Z,11.60
2018-05-04T07:43:17.754Z,11.50
2018-05-04T07:45:45.265Z,11.70
2018-05-04T07:48:13.803Z,12.00
2018-05-04T07:50:41.309Z,12.00
2018-05-04T07:53:09.003Z,12.30
2018-05-04T07:55:36.796Z,12.40
2018-05-04T07:58:04.319Z,12.30
2018-05-04T08:00:31.996Z,12.50
2018-05-04T08:02:59.567Z,12.60
2018-05-04T08:05:27.013Z,12.70
2018-05-04T08:07:54.695Z,12.90
2018-05-04T08:10:22.205Z,12.90
2018-05-04T08:12:49.869Z,12.80
2018-05-04T08:15:17.381Z,12.80
2018-05-04T08:17:44.892Z,12.60
2018-05-04T08:20:12.621Z,12.60
2018-05-04T08:22:40.152Z,12.40
2018-05-04T08:25:07.778Z,12.60
2018-05-04T08:27:35.661Z,12.70
2018-05-04T08:30:03.155Z,12.60
2018-05-04T08:32:30.796Z,12.50
2018-05-04T08:34:58.293Z,12.40
2018-05-04T08:37:25.815Z,12.40
2018-05-04T08:39:53.452Z,12.60
2018-05-04T08:42:20.963Z,12.50
2018-05-04T08:44:48.682Z,12.50
2018-05-04T08:47:17.045Z,12.30
2018-05-04T08:49:44.563Z,12.10
2018-05-04T08:52:12.093Z,12.10
2018-05-04T08:54:39.622Z,12.00
2018-05-04T08:57:07.244Z,12.10
2018-05-04T08:59:34.969Z,12.20
2018-05-04T09:02:02.461Z,12.30
2018-05-04T09:04:29.967Z,12.40
2018-05-04T09:06:57.708Z,12.60
2018-05-04T09:09:25.359Z,12.60
2018-05-04T09:11:52.828Z,12.40
2018-05-04T09:14:21.322Z,12.70
2018-05-04T09:16:48.834Z,12.90
2018-05-04T09:19:16.459Z,12.90
2018-05-04T09:21:43.966Z,12.80
2018-05-04T09:24:11.636Z,12.70
2018-05-04T09:26:39.445Z,12.90
2018-05-04T09:29:06.959Z,12.70
2018-05-04T09:31:34.457Z,12.90
2018-05-04T09:34:02.292Z,13.20
2018-05-04T09:36:29.865Z,13.40
2018-05-04T09:38:57.646Z,13.50
2018-05-04T09:41:25.150Z,13.50
2018-05-04T09:43:52.822Z,13.70
2018-05-04T09:46:20.325Z,13.70
2018-05-04T09:48:48.074Z,13.70
2018-05-04T09:51:15.582Z,13.80
2018-05-04T09:53:43.207Z,13.90
2018-05-04T09:56:10.767Z,14.20
2018-05-04T09:58:38.401Z,14.30
2018-05-04T10:01:05.978Z,14.40
2018-05-04T10:03:33.826Z,14.60
2018-05-04T10:06:01.520Z,14.50
2018-05-04T10:08:29.019Z,14.50
2018-05-04T10:10:56.730Z,14.70
2018-05-04T10:13:24.234Z,14.80
2018-05-04T10:15:51.902Z,14.40
2018-05-04T10:18:19.410Z,14.40
2018-05-04T10:20:47.154Z,14.60
2018-05-04T10:23:14.665Z,14.80
2018-05-04T10:25:42.381Z,15.00
2018-05-04T10:28:10.057Z,14.70
2018-05-04T10:30:37.612Z,14.90
2018-05-04T10:33:05.119Z,14.80
2018-05-04T10:35:32.818Z,14.60
2018-05-04T10:38:00.341Z,14.60
2018-05-04T10:40:28.049Z,14.70
2018-05-04T10:42:55.558Z,14.80
2018-05-04T10:45:23.868Z,14.70
2018-05-04T10:47:51.379Z,14.80
2018-05-04T10:50:19.094Z,14.60
2018-05-04T10:52:46.858Z,14.90
2018-05-04T10:55:14.362Z,14.80
2018-05-04T10:57:42.055Z,14.80
2018-05-04T11:00:09.862Z,14.60
2018-05-04T11:02:37.486Z,14.60
2018-05-04T11:05:04.990Z,15.00
2018-05-04T11:07:32.494Z,15.10
2018-05-04T11:09:59.990Z,15.10
2018-05-04T11:12:27.498Z,15.40
2018-05-04T11:14:55.005Z,14.80
2018-05-04T11:17:22.521Z,14.80
2018-05-04T11:19:50.109Z,14.80
2018-05-04T11:22:17.625Z,15.00
2018-05-04T11:24:45.309Z,15.20
2018-05-04T11:27:13.091Z,15.10
2018-05-04T11:29:40.598Z,15.40
2018-05-04T11:32:08.326Z,15.50
2018-05-04T11:34:35.842Z,15.60
2018-05-04T11:37:03.350Z,15.60
2018-05-04T11:39:30.999Z,15.70
2018-05-04T11:41:58.498Z,15.60
2018-05-04T11:44:26.191Z,15.20
2018-05-04T11:46:53.705Z,15.20
2018-05-04T11:49:21.431Z,15.20
2018-05-04T11:51:48.963Z,15.30
2018-05-04T11:54:16.615Z,15.50
2018-05-04T11:56:44.126Z,15.50
2018-05-04T11:59:11.639Z,15.50
2018-05-04T12:01:39.326Z,15.70
2018-05-04T12:04:06.838Z,15.70
2018-05-04T12:06:34.554Z,15.70
2018-05-04T12:09:02.279Z,15.90
2018-05-04T12:11:29.787Z,16.00
2018-05-04T12:13:57.291Z,15.70
2018-05-04T12:16:24.993Z,15.70
2018-05-04T12:18:52.490Z,15.80
2018-05-04T12:21:20.211Z,16.00
2018-05-04T12:23:47.726Z,16.00
2018-05-04T12:26:15.224Z,16.10
2018-05-04T12:28:42.829Z,15.80
2018-05-04T12:31:10.326Z,15.50
2018-05-04T12:33:37.845Z,15.30
2018-05-04T12:36:05.565Z,15.60
2018-05-04T12:38:33.371Z,15.90
2018-05-04T12:41:00.825Z,16.00
2018-05-04T12:43:28.339Z,16.20
2018-05-04T12:45:55.968Z,16.50
2018-05-04T12:48:23.475Z,16.60
2018-05-04T12:50:51.213Z,16.70
2018-05-04T12:53:18.844Z,16.80
2018-05-04T12:55:46.318Z,16.80
2018-05-04T12:58:13.911Z,16.90
2018-05-04T13:00:41.426Z,16.70
2018-05-04T13:03:08.926Z,16.70
2018-05-04T13:05:36.570Z,16.50
2018-05-04T13:08:04.337Z,16.30
2018-05-04T13:10:31.849Z,16.40
2018-05-04T13:12:59.352Z,16.60
2018-05-04T13:15:27.007Z,16.80
2018-05-04T13:17:54.647Z,17.00
2018-05-04T13:20:22.225Z,17.10
2018-05-04T13:22:49.783Z,17.00
2018-05-04T13:25:17.354Z,17.10
2018-05-04T13:27:44.915Z,17.20
2018-05-04T13:30:12.423Z,17.10
2018-05-04T13:32:40.126Z,17.00
2018-05-04T13:35:07.633Z,17.10
2018-05-04T13:37:35.144Z,17.20
2018-05-04T13:40:02.779Z,17.50
2018-05-04T13:42:30.285Z,17.70
2018-05-04T13:44:57.791Z,17.60
2018-05-04T13:47:25.302Z,17.50
2018-05-04T13:49:52.942Z,17.80
2018-05-04T13:52:20.662Z,17.90
2018-05-04T13:54:48.174Z,17.80
2018-05-04T13:57:15.685Z,18.10
2018-05-04T13:59:43.271Z,18.40
2018-05-04T14:02:10.788Z,18.80
2018-05-04T14:04:38.470Z,18.90
2018-05-04T14:07:05.957Z,18.70
2018-05-04T14:09:33.474Z,18.20
2018-05-04T14:12:00.979Z,18.30
2018-05-04T14:14:28.727Z,18.60
2018-05-04T14:16:56.514Z,18.70
2018-05-04T14:19:24.023Z,19.00
2018-05-04T14:21:51.566Z,18.70
2018-05-04T14:24:19.260Z,19.10
2018-05-04T14:26:46.755Z,19.10
2018-05-04T14:29:14.409Z,19.00
2018-05-04T14:31:42.154Z,19.30
2018-05-04T14:34:09.667Z,19.40
2018-05-04T14:36:37.377Z,19.40
2018-05-04T14:39:04.882Z,19.60
2018-05-04T14:41:32.388Z,19.80
2018-05-04T14:43:59.970Z,19.40
2018-05-04T14:46:27.462Z,19.40
2018-05-04T14:48:54.985Z,19.30
2018-05-04T14:51:22.750Z,19.00
2018-05-04T14:53:50.318Z,19.10
2018-05-04T14:56:17.810Z,18.60
2018-05-04T14:58:45.435Z,19.00
2018-05-04T15:01:13.167Z,18.90
2018-05-04T15:03:40.686Z,19.60
2018-05-04T15:06:08.707Z,19.80
2018-05-04T15:08:36.453Z,19.80
2018-05-04T15:11:03.958Z,19.80
2018-05-04T15:13:31.682Z,19.60
2018-05-04T15:15:59.221Z,18.90
2018-05-04T15:18:26.901Z,19.10
2018-05-04T15:20:54.405Z,19.50
2018-05-04T15:23:22.117Z,19.90
2018-05-04T15:25:49.633Z,20.00
2018-05-04T15:28:17.338Z,20.30
2018-05-04T15:30:44.855Z,19.30
2018-05-04T15:33:12.341Z,19.50
2018-05-04T15:35:39.989Z,19.80
2018-05-04T15:38:07.494Z,19.60
2018-05-04T15:40:36.792Z,20.00
2018-05-04T15:43:04.532Z,20.00
2018-05-04T15:45:32.049Z,20.50
2018-05-04T15:47:59.756Z,20.70
2018-05-04T15:50:32.931Z,21.00
2018-05-04T15:53:00.684Z,21.00
2018-05-04T15:55:28.183Z,21.30
2018-05-04T15:57:55.722Z,21.10
2018-05-04T16:00:23.237Z,20.90
2018-05-04T16:02:50.942Z,21.20
2018-05-04T16:05:18.448Z,20.70
2018-05-04T16:07:46.122Z,21.00
2018-05-04T16:10:13.753Z,21.10
2018-05-04T16:12:41.304Z,21.10
2018-05-04T16:15:08.804Z,21.20
2018-05-04T16:17:36.601Z,20.80
2018-05-04T16:20:04.105Z,21.00
2018-05-04T16:22:31.822Z,21.70
2018-05-04T16:24:59.339Z,22.30
2018-05-04T16:27:27.045Z,22.40
2018-05-04T16:29:54.804Z,22.80
2018-05-04T16:32:22.581Z,23.00
2018-05-04T16:34:51.612Z,21.60
2018-05-04T16:37:19.324Z,21.60
2018-05-04T16:39:46.830Z,21.10
2018-05-04T16:42:14.331Z,21.20
2018-05-04T16:44:42.002Z,21.40
2018-05-04T16:47:15.289Z,21.80
2018-05-04T16:49:43.059Z,22.00
2018-05-04T16:52:10.680Z,21.70
2018-05-04T16:54:38.582Z,21.30
2018-05-04T16:57:06.082Z,20.10
2018-05-04T16:59:33.582Z,19.50
2018-05-04T17:02:01.263Z,19.10
2018-05-04T17:04:28.764Z,19.00
2018-05-04T17:06:56.418Z,18.50
2018-05-04T17:09:23.918Z,18.40
2018-05-04T17:14:25.384Z,18.20
2018-05-04T17:16:52.870Z,18.20
2018-05-04T17:19:20.374Z,18.20
2018-05-04T17:21:49.346Z,18.00
2018-05-04T17:24:17.619Z,17.70
2018-05-04T17:26:45.130Z,17.70
2018-05-04T17:29:12.734Z,17.40
2018-05-04T17:31:41.010Z,17.30
2018-05-04T17:34:08.660Z,17.30
2018-05-04T17:36:36.147Z,17.20
2018-05-04T17:39:03.638Z,17.20
2018-05-04T17:41:31.173Z,17.10
2018-05-04T17:43:58.773Z,16.90
2018-05-04T17:46:26.278Z,16.90
2018-05-04T17:48:53.784Z,16.70
2018-05-04T17:51:21.285Z,16.70
2018-05-04T17:53:49.554Z,16.30
2018-05-04T17:56:17.279Z,16.30
2018-05-04T17:58:44.789Z,16.00
2018-05-04T18:01:12.450Z,16.10
2018-05-04T18:03:40.726Z,16.10
2018-05-04T18:06:08.996Z,15.70
2018-05-04T18:08:36.547Z,15.70
2018-05-04T18:11:04.005Z,15.50
2018-05-04T18:13:32.273Z,15.30
2018-05-04T18:15:59.883Z,15.20
2018-05-04T18:18:28.359Z,15.30
2018-05-04T18:20:56.467Z,15.40
2018-05-04T18:23:23.974Z,15.50
2018-05-04T18:25:51.677Z,15.20
2018-05-04T18:28:19.192Z,15.20
2018-05-04T18:30:46.770Z,15.00
2018-05-04T18:33:14.260Z,14.90
2018-05-04T18:35:41.776Z,14.60
2018-05-04T18:38:09.298Z,14.80
2018-05-04T18:40:37.465Z,14.70
2018-05-04T18:43:04.974Z,14.50
2018-05-04T18:45:32.554Z,14.40
2018-05-04T18:48:00.256Z,14.50
2018-05-04T18:50:27.754Z,14.40
2018-05-04T18:52:55.537Z,14.40
2018-05-04T18:55:23.037Z,14.30
2018-05-04T18:57:50.756Z,14.20
2018-05-04T19:00:18.262Z,14.20
2018-05-04T19:02:51.725Z,14.10
2018-05-04T19:05:19.280Z,14.30
2018-05-04T19:07:47.265Z,14.70
2018-05-04T19:10:14.810Z,14.10
2018-05-04T19:12:42.324Z,14.30
2018-05-04T19:15:09.990Z,14.20
2018-05-04T19:17:37.702Z,14.10
2018-05-04T19:20:05.231Z,14.10
2018-05-04T19:22:32.732Z,14.00
2018-05-04T19:25:00.457Z,13.80
2018-05-04T19:27:27.977Z,13.50
2018-05-04T19:29:56.293Z,13.20
2018-05-04T19:32:24.009Z,13.30
2018-05-04T19:34:51.563Z,13.30
2018-05-04T19:37:19.786Z,13.20
2018-05-04T19:39:47.834Z,13.20
2018-05-04T19:42:15.337Z,13.20
2018-05-04T19:44:43.794Z,12.90
2018-05-04T19:47:11.594Z,12.80
2018-05-04T19:49:39.154Z,12.80
2018-05-04T19:52:07.296Z,12.80
2018-05-04T19:54:34.829Z,13.00
2018-05-04T19:57:02.325Z,12.90
2018-05-04T19:59:29.836Z,12.80
2018-05-04T20:01:57.473Z,12.60
2018-05-04T20:04:24.957Z,12.80
2018-05-04T20:06:52.481Z,12.80
2018-05-04T20:09:19.977Z,12.70
2018-05-04T20:11:47.661Z,12.80
2018-05-04T20:14:15.173Z,12.90
2018-05-04T20:16:42.885Z,12.80
2018-05-04T20:19:10.391Z,12.70
2018-05-04T20:21:37.915Z,12.60
2018-05-04T20:24:05.524Z,12.70
2018-05-04T20:26:33.026Z,12.60
2018-05-04T20:29:00.577Z,12.50
2018-05-04T20:31:28.060Z,12.30
2018-05-04T20:33:55.725Z,12.70
2018-05-04T20:36:23.766Z,12.70
2018-05-04T20:38:51.301Z,12.50
2018-05-04T20:41:18.957Z,12.60
2018-05-04T20:43:46.466Z,12.90
2018-05-04T20:46:14.197Z,12.90
2018-05-04T20:48:41.709Z,12.90
2018-05-04T20:51:09.211Z,12.90
2018-05-04T20:53:36.723Z,12.70
2018-05-04T20:56:05.011Z,12.30
2018-05-04T20:58:32.555Z,12.30
2018-05-04T21:01:00.946Z,12.30
2018-05-04T21:03:32.526Z,12.20
2018-05-04T21:06:00.024Z,12.10
2018-05-04T21:08:28.915Z,12.20
2018-05-04T21:10:56.410Z,12.10
2018-05-04T21:13:24.220Z,12.30
2018-05-04T21:15:52.002Z,12.10
2018-05-04T21:18:19.668Z,12.10
2018-05-04T21:20:47.368Z,12.00
2018-05-04T21:23:14.967Z,11.90
2018-05-04T21:25:42.730Z,12.00
2018-05-04T21:28:10.249Z,12.10
2018-05-04T21:30:46.525Z,11.90
2018-05-04T21:33:14.313Z,11.90
2018-05-04T21:35:42.763Z,11.80
2018-05-04T21:38:10.369Z,11.80
2018-05-04T21:40:40.932Z,11.70
2018-05-04T21:43:09.555Z,11.70
2018-05-04T21:45:37.359Z,11.70
2018-05-04T21:48:08.957Z,11.60
2018-05-04T21:50:37.878Z,11.70
2018-05-04T21:53:06.956Z,11.80
2018-05-04T21:55:36.663Z,11.80
2018-05-04T21:58:08.480Z,11.80
2018-05-04T22:00:38.874Z,11.70
2018-05-04T22:03:08.446Z,11.50
2018-05-04T22:05:35.934Z,11.50
2018-05-04T22:08:04.853Z,11.50
2018-05-04T22:10:32.681Z,11.50
2018-05-04T22:13:02.601Z,11.50
2018-05-04T22:15:34.630Z,11.50
2018-05-04T22:18:05.570Z,11.50
2018-05-04T22:20:33.496Z,11.50
2018-05-04T22:23:02.824Z,11.40
2018-05-04T22:25:32.572Z,11.40
2018-05-04T22:28:01.144Z,11.30
2018-05-04T22:30:30.637Z,11.20
2018-05-04T22:32:59.792Z,11.20
2018-05-04T22:35:27.302Z,11.20
2018-05-04T22:37:58.416Z,11.10
2018-05-04T22:40:25.968Z,11.00
2018-05-04T22:42:53.461Z,11.10
2018-05-04T22:45:21.101Z,11.00
2018-05-04T22:47:48.687Z,10.90
2018-05-04T22:50:16.182Z,10.80
2018-05-04T22:52:43.890Z,10.80
2018-05-04T22:55:11.404Z,10.80
2018-05-04T22:57:39.122Z,10.80
2018-05-04T23:00:06.669Z,10.80
2018-05-04T23:02:34.301Z,10.80
2018-05-04T23:05:02.722Z,10.60
2018-05-04T23:07:30.241Z,10.60
2018-05-04T23:09:57.758Z,10.60
2018-05-04T23:12:25.395Z,10.60
2018-05-04T23:14:53.161Z,10.60
2018-05-04T23:17:20.656Z,10.50
2018-05-04T23:19:48.173Z,10.50
2018-05-04T23:22:27.607Z,10.50
2018-05-04T23:24:55.101Z,10.50
2018-05-04T23:27:22.738Z,10.40
2018-05-04T23:29:50.237Z,10.40
2018-05-04T23:32:17.743Z,10.40
2018-05-04T23:34:45.406Z,10.30
2018-05-04T23:37:12.902Z,10.30
2018-05-04T23:39:40.409Z,10.20
2018-05-04T23:42:08.082Z,10.20
2018-05-04T23:44:35.946Z,10.20
2018-05-04T23:47:03.666Z,10.20
2018-05-04T23:49:31.166Z,10.10
2018-05-04T23:51:58.805Z,10.10
2018-05-04T23:54:26.304Z,10.10
2018-05-04T23:56:54.051Z,10.10
2018-05-04T23:59:21.811Z,10.00
